sensor_id;sensor_type;location;lat;lon;timestamp;pressure;altitude;pressure_sealevel;temperature;humidity
60417;BME280;46263;44.726;10.396;2022-08-01T00:01:12;100229.47;;;23.99;60.53
60417;BME280;46263;44.726;10.396;2022-08-01T00:03:37;100228.84;;;23.94;60.58
60417;BME280;46263;44.726;10.396;2022-08-01T00:06:03;100228.66;;;23.90;61.05
60417;BME280;46263;44.726;10.396;2022-08-01T00:08:28;100231.41;;;23.90;60.83
60417;BME280;46263;44.726;10.396;2022-08-01T00:10:53;100233.19;;;23.95;61.19
60417;BME280;46263;44.726;10.396;2022-08-01T00:13:18;100237.84;;;23.85;61.21
60417;BME280;46263;44.726;10.396;2022-08-01T00:15:44;100230.09;;;23.87;61.31
60417;BME280;46263;44.726;10.396;2022-08-01T00:18:09;100229.47;;;23.90;60.81
60417;BME280;46263;44.726;10.396;2022-08-01T00:20:34;100234.81;;;24.04;61.19
60417;BME280;46263;44.726;10.396;2022-08-01T00:23:01;100225.84;;;23.73;62.81
60417;BME280;46263;44.726;10.396;2022-08-01T00:25:27;100227.91;;;23.59;63.30
60417;BME280;46263;44.726;10.396;2022-08-01T00:27:52;100228.91;;;23.32;64.51
60417;BME280;46263;44.726;10.396;2022-08-01T00:30:19;100233.16;;;23.46;64.13
60417;BME280;46263;44.726;10.396;2022-08-01T00:32:44;100231.97;;;23.30;65.01
60417;BME280;46263;44.726;10.396;2022-08-01T00:35:09;100227.63;;;23.29;65.37
60417;BME280;46263;44.726;10.396;2022-08-01T00:37:35;100225.50;;;23.26;65.38
60417;BME280;46263;44.726;10.396;2022-08-01T00:40:00;100222.63;;;23.31;65.52
60417;BME280;46263;44.726;10.396;2022-08-01T00:42:25;100224.88;;;23.29;66.58
60417;BME280;46263;44.726;10.396;2022-08-01T00:44:51;100226.44;;;23.21;66.81
60417;BME280;46263;44.726;10.396;2022-08-01T00:47:16;100231.56;;;23.14;67.25
60417;BME280;46263;44.726;10.396;2022-08-01T00:49:41;100219.97;;;23.17;66.55
60417;BME280;46263;44.726;10.396;2022-08-01T00:52:07;100232.84;;;23.08;66.66
60417;BME280;46263;44.726;10.396;2022-08-01T00:54:33;100231.25;;;23.16;66.00
60417;BME280;46263;44.726;10.396;2022-08-01T00:56:59;100235.59;;;23.17;65.94
60417;BME280;46263;44.726;10.396;2022-08-01T00:59:24;100234.78;;;23.16;65.73
60417;BME280;46263;44.726;10.396;2022-08-01T01:01:50;100231.22;;;23.07;65.65
60417;BME280;46263;44.726;10.396;2022-08-01T01:04:17;100229.09;;;23.04;65.51
60417;BME280;46263;44.726;10.396;2022-08-01T01:06:51;100231.56;;;23.14;64.65
60417;BME280;46263;44.726;10.396;2022-08-01T01:14:42;100233.41;;;22.97;66.60
60417;BME280;46263;44.726;10.396;2022-08-01T01:17:11;100230.47;;;22.93;66.41
60417;BME280;46263;44.726;10.396;2022-08-01T01:19:39;100233.00;;;22.81;66.28
60417;BME280;46263;44.726;10.396;2022-08-01T01:27:35;100219.00;;;22.91;66.19
60417;BME280;46263;44.726;10.396;2022-08-01T01:30:04;100227.81;;;22.79;66.47
60417;BME280;46263;44.726;10.396;2022-08-01T01:32:44;100220.72;;;22.78;66.92
60417;BME280;46263;44.726;10.396;2022-08-01T01:35:30;100215.41;;;22.82;67.18
60417;BME280;46263;44.726;10.396;2022-08-01T01:38:09;100226.00;;;22.75;67.56
60417;BME280;46263;44.726;10.396;2022-08-01T01:40:35;100214.44;;;22.78;67.20
60417;BME280;46263;44.726;10.396;2022-08-01T01:43:01;100215.84;;;22.98;67.05
60417;BME280;46263;44.726;10.396;2022-08-01T01:45:27;100217.66;;;23.02;66.62
60417;BME280;46263;44.726;10.396;2022-08-01T01:47:53;100213.66;;;23.08;66.40
60417;BME280;46263;44.726;10.396;2022-08-01T01:50:20;100207.19;;;23.04;66.54
60417;BME280;46263;44.726;10.396;2022-08-01T01:52:45;100209.38;;;22.94;66.84
60417;BME280;46263;44.726;10.396;2022-08-01T01:55:11;100214.63;;;23.12;66.30
60417;BME280;46263;44.726;10.396;2022-08-01T01:57:39;100222.72;;;23.17;66.16
60417;BME280;46263;44.726;10.396;2022-08-01T02:00:05;100222.19;;;23.07;66.24
60417;BME280;46263;44.726;10.396;2022-08-01T02:02:32;100220.44;;;22.88;66.67
60417;BME280;46263;44.726;10.396;2022-08-01T02:04:58;100226.75;;;22.89;65.97
60417;BME280;46263;44.726;10.396;2022-08-01T02:07:24;100226.38;;;22.82;65.60
60417;BME280;46263;44.726;10.396;2022-08-01T02:09:50;100226.41;;;22.68;67.17
60417;BME280;46263;44.726;10.396;2022-08-01T02:12:16;100216.91;;;22.66;67.73
60417;BME280;46263;44.726;10.396;2022-08-01T02:14:43;100216.50;;;22.58;68.14
60417;BME280;46263;44.726;10.396;2022-08-01T02:17:10;100209.91;;;22.60;68.08
60417;BME280;46263;44.726;10.396;2022-08-01T02:19:36;100221.69;;;22.60;67.96
60417;BME280;46263;44.726;10.396;2022-08-01T02:22:46;100212.66;;;22.60;68.01
60417;BME280;46263;44.726;10.396;2022-08-01T02:27:37;100214.28;;;22.61;68.11
60417;BME280;46263;44.726;10.396;2022-08-01T02:30:05;100209.28;;;22.63;68.32
60417;BME280;46263;44.726;10.396;2022-08-01T02:32:38;100208.78;;;22.61;68.47
60417;BME280;46263;44.726;10.396;2022-08-01T02:35:05;100208.56;;;22.71;68.42
60417;BME280;46263;44.726;10.396;2022-08-01T02:37:33;100205.44;;;22.64;68.95
60417;BME280;46263;44.726;10.396;2022-08-01T02:39:59;100214.22;;;22.52;69.61
60417;BME280;46263;44.726;10.396;2022-08-01T02:42:24;100209.78;;;22.42;70.75
60417;BME280;46263;44.726;10.396;2022-08-01T02:44:51;100218.44;;;22.36;71.34
60417;BME280;46263;44.726;10.396;2022-08-01T02:47:17;100218.75;;;22.34;71.00
60417;BME280;46263;44.726;10.396;2022-08-01T02:49:45;100213.69;;;22.28;71.57
60417;BME280;46263;44.726;10.396;2022-08-01T02:52:12;100219.66;;;22.30;71.64
60417;BME280;46263;44.726;10.396;2022-08-01T02:54:38;100215.50;;;22.32;72.02
60417;BME280;46263;44.726;10.396;2022-08-01T02:57:04;100215.09;;;22.25;72.45
60417;BME280;46263;44.726;10.396;2022-08-01T02:59:31;100218.81;;;22.20;72.16
60417;BME280;46263;44.726;10.396;2022-08-01T03:01:56;100214.34;;;22.11;72.79
60417;BME280;46263;44.726;10.396;2022-08-01T03:04:24;100228.13;;;22.19;72.01
60417;BME280;46263;44.726;10.396;2022-08-01T03:06:52;100223.63;;;22.23;71.63
60417;BME280;46263;44.726;10.396;2022-08-01T03:09:20;100221.97;;;22.36;71.18
60417;BME280;46263;44.726;10.396;2022-08-01T03:11:46;100224.44;;;22.24;72.52
60417;BME280;46263;44.726;10.396;2022-08-01T03:14:13;100229.56;;;22.17;71.58
60417;BME280;46263;44.726;10.396;2022-08-01T03:16:40;100228.84;;;22.11;71.58
60417;BME280;46263;44.726;10.396;2022-08-01T03:19:07;100243.84;;;22.14;72.59
60417;BME280;46263;44.726;10.396;2022-08-01T03:21:33;100238.38;;;22.14;74.83
60417;BME280;46263;44.726;10.396;2022-08-01T03:23:59;100233.03;;;22.31;73.97
60417;BME280;46263;44.726;10.396;2022-08-01T03:26:26;100235.88;;;22.40;72.89
60417;BME280;46263;44.726;10.396;2022-08-01T03:28:55;100230.78;;;22.47;74.08
60417;BME280;46263;44.726;10.396;2022-08-01T03:31:21;100235.63;;;22.14;73.70
60417;BME280;46263;44.726;10.396;2022-08-01T03:33:47;100230.72;;;22.24;72.97
60417;BME280;46263;44.726;10.396;2022-08-01T03:36:15;100230.88;;;22.42;72.27
60417;BME280;46263;44.726;10.396;2022-08-01T03:38:42;100230.00;;;22.33;72.67
60417;BME280;46263;44.726;10.396;2022-08-01T03:41:20;100228.84;;;22.11;74.20
60417;BME280;46263;44.726;10.396;2022-08-01T03:43:52;100235.72;;;22.22;74.24
60417;BME280;46263;44.726;10.396;2022-08-01T03:46:26;100233.13;;;22.40;73.77
60417;BME280;46263;44.726;10.396;2022-08-01T03:48:54;100226.09;;;22.11;74.67
60417;BME280;46263;44.726;10.396;2022-08-01T03:51:20;100234.00;;;22.13;74.98
60417;BME280;46263;44.726;10.396;2022-08-01T03:53:46;100237.28;;;22.37;73.45
60417;BME280;46263;44.726;10.396;2022-08-01T03:56:13;100237.56;;;22.13;74.84
60417;BME280;46263;44.726;10.396;2022-08-01T03:58:41;100247.75;;;22.35;73.63
60417;BME280;46263;44.726;10.396;2022-08-01T04:01:07;100242.25;;;22.35;73.22
60417;BME280;46263;44.726;10.396;2022-08-01T04:03:34;100239.28;;;22.23;75.83
60417;BME280;46263;44.726;10.396;2022-08-01T04:06:00;100244.88;;;22.04;75.90
60417;BME280;46263;44.726;10.396;2022-08-01T04:08:37;100249.63;;;22.12;74.56
60417;BME280;46263;44.726;10.396;2022-08-01T04:11:03;100246.88;;;22.12;74.73
60417;BME280;46263;44.726;10.396;2022-08-01T04:13:29;100246.34;;;21.97;75.08
60417;BME280;46263;44.726;10.396;2022-08-01T04:15:55;100255.22;;;21.94;74.75
60417;BME280;46263;44.726;10.396;2022-08-01T04:18:20;100249.41;;;21.95;74.81
60417;BME280;46263;44.726;10.396;2022-08-01T04:20:48;100249.53;;;22.04;74.50
60417;BME280;46263;44.726;10.396;2022-08-01T04:23:20;100251.50;;;22.26;73.09
60417;BME280;46263;44.726;10.396;2022-08-01T04:25:47;100253.78;;;22.10;73.67
60417;BME280;46263;44.726;10.396;2022-08-01T04:28:14;100260.84;;;22.24;73.26
60417;BME280;46263;44.726;10.396;2022-08-01T04:30:41;100256.94;;;22.39;71.31
60417;BME280;46263;44.726;10.396;2022-08-01T04:33:08;100256.34;;;22.42;70.89
60417;BME280;46263;44.726;10.396;2022-08-01T04:35:35;100268.34;;;22.55;70.51
60417;BME280;46263;44.726;10.396;2022-08-01T04:38:03;100267.31;;;22.65;69.94
60417;BME280;46263;44.726;10.396;2022-08-01T04:40:29;100259.16;;;22.73;69.07
60417;BME280;46263;44.726;10.396;2022-08-01T04:42:55;100262.72;;;22.74;68.41
60417;BME280;46263;44.726;10.396;2022-08-01T04:45:20;100265.66;;;22.77;68.01
60417;BME280;46263;44.726;10.396;2022-08-01T04:47:46;100270.13;;;22.73;69.72
60417;BME280;46263;44.726;10.396;2022-08-01T04:50:12;100269.09;;;22.83;68.89
60417;BME280;46263;44.726;10.396;2022-08-01T04:52:38;100268.91;;;22.79;69.89
60417;BME280;46263;44.726;10.396;2022-08-01T04:55:04;100264.34;;;22.75;71.61
60417;BME280;46263;44.726;10.396;2022-08-01T04:57:37;100270.09;;;22.87;72.73
60417;BME280;46263;44.726;10.396;2022-08-01T05:00:03;100269.22;;;23.00;69.11
60417;BME280;46263;44.726;10.396;2022-08-01T05:02:28;100278.91;;;22.84;74.15
60417;BME280;46263;44.726;10.396;2022-08-01T05:04:54;100276.00;;;23.03;70.55
60417;BME280;46263;44.726;10.396;2022-08-01T05:07:20;100279.25;;;23.05;72.31
60417;BME280;46263;44.726;10.396;2022-08-01T05:09:46;100271.88;;;23.14;69.34
60417;BME280;46263;44.726;10.396;2022-08-01T05:12:11;100268.06;;;23.23;68.57
60417;BME280;46263;44.726;10.396;2022-08-01T05:14:36;100268.50;;;23.17;67.53
60417;BME280;46263;44.726;10.396;2022-08-01T05:17:03;100268.94;;;23.33;66.87
60417;BME280;46263;44.726;10.396;2022-08-01T05:19:32;100280.03;;;23.28;68.33
60417;BME280;46263;44.726;10.396;2022-08-01T05:21:58;100280.41;;;23.43;67.26
60417;BME280;46263;44.726;10.396;2022-08-01T05:24:25;100274.69;;;23.53;69.80
60417;BME280;46263;44.726;10.396;2022-08-01T05:26:50;100273.28;;;23.65;68.94
60417;BME280;46263;44.726;10.396;2022-08-01T05:29:16;100276.97;;;23.60;66.20
60417;BME280;46263;44.726;10.396;2022-08-01T05:31:41;100277.03;;;23.77;66.61
60417;BME280;46263;44.726;10.396;2022-08-01T05:34:06;100280.59;;;23.78;64.71
60417;BME280;46263;44.726;10.396;2022-08-01T05:36:31;100282.47;;;23.69;64.41
60417;BME280;46263;44.726;10.396;2022-08-01T05:38:57;100285.75;;;23.79;64.08
60417;BME280;46263;44.726;10.396;2022-08-01T05:41:22;100286.59;;;23.88;63.59
60417;BME280;46263;44.726;10.396;2022-08-01T05:43:48;100287.28;;;23.94;64.72
60417;BME280;46263;44.726;10.396;2022-08-01T05:46:13;100293.53;;;23.86;63.94
60417;BME280;46263;44.726;10.396;2022-08-01T05:48:38;100290.47;;;23.87;64.89
60417;BME280;46263;44.726;10.396;2022-08-01T05:51:03;100291.16;;;23.93;64.72
60417;BME280;46263;44.726;10.396;2022-08-01T05:53:29;100283.09;;;24.05;64.91
60417;BME280;46263;44.726;10.396;2022-08-01T05:55:55;100291.16;;;24.02;65.61
60417;BME280;46263;44.726;10.396;2022-08-01T05:58:20;100295.44;;;24.34;64.58
60417;BME280;46263;44.726;10.396;2022-08-01T06:00:45;100301.91;;;24.38;63.94
60417;BME280;46263;44.726;10.396;2022-08-01T06:03:10;100292.88;;;24.37;64.86
60417;BME280;46263;44.726;10.396;2022-08-01T06:05:36;100299.78;;;24.26;62.84
60417;BME280;46263;44.726;10.396;2022-08-01T06:08:01;100289.63;;;24.35;63.10
60417;BME280;46263;44.726;10.396;2022-08-01T06:10:30;100291.41;;;24.40;62.51
60417;BME280;46263;44.726;10.396;2022-08-01T06:12:55;100297.22;;;24.55;62.27
60417;BME280;46263;44.726;10.396;2022-08-01T06:15:20;100293.22;;;24.53;61.74
60417;BME280;46263;44.726;10.396;2022-08-01T06:17:45;100299.00;;;24.60;61.07
60417;BME280;46263;44.726;10.396;2022-08-01T06:23:15;100297.25;;;24.64;58.97
60417;BME280;46263;44.726;10.396;2022-08-01T06:25:41;100301.28;;;24.84;60.18
60417;BME280;46263;44.726;10.396;2022-08-01T06:28:07;100294.03;;;24.97;59.02
60417;BME280;46263;44.726;10.396;2022-08-01T06:30:32;100297.25;;;24.99;60.28
60417;BME280;46263;44.726;10.396;2022-08-01T06:32:57;100294.31;;;25.12;59.47
60417;BME280;46263;44.726;10.396;2022-08-01T06:35:24;100291.44;;;25.09;59.20
60417;BME280;46263;44.726;10.396;2022-08-01T06:37:50;100296.94;;;25.09;59.30
60417;BME280;46263;44.726;10.396;2022-08-01T06:40:15;100288.00;;;25.20;58.60
60417;BME280;46263;44.726;10.396;2022-08-01T06:42:40;100295.44;;;25.20;58.50
60417;BME280;46263;44.726;10.396;2022-08-01T06:45:07;100295.91;;;25.31;59.08
60417;BME280;46263;44.726;10.396;2022-08-01T06:47:33;100296.00;;;25.43;59.27
60417;BME280;46263;44.726;10.396;2022-08-01T06:49:58;100296.69;;;25.40;58.71
60417;BME280;46263;44.726;10.396;2022-08-01T06:52:23;100293.88;;;25.57;58.39
60417;BME280;46263;44.726;10.396;2022-08-01T06:54:49;100299.19;;;25.62;58.79
60417;BME280;46263;44.726;10.396;2022-08-01T06:57:14;100298.25;;;25.58;60.30
60417;BME280;46263;44.726;10.396;2022-08-01T06:59:39;100301.47;;;25.60;58.34
60417;BME280;46263;44.726;10.396;2022-08-01T07:02:05;100302.47;;;25.64;56.71
60417;BME280;46263;44.726;10.396;2022-08-01T07:04:31;100307.91;;;25.73;56.35
60417;BME280;46263;44.726;10.396;2022-08-01T07:06:57;100301.72;;;25.84;55.88
60417;BME280;46263;44.726;10.396;2022-08-01T07:09:22;100302.75;;;25.63;55.10
60417;BME280;46263;44.726;10.396;2022-08-01T07:11:48;100299.63;;;25.81;54.83
60417;BME280;46263;44.726;10.396;2022-08-01T07:14:15;100302.00;;;25.92;53.35
60417;BME280;46263;44.726;10.396;2022-08-01T07:16:41;100302.09;;;26.04;53.06
60417;BME280;46263;44.726;10.396;2022-08-01T07:19:06;100303.03;;;26.08;53.25
60417;BME280;46263;44.726;10.396;2022-08-01T07:21:31;100305.91;;;26.20;53.62
60417;BME280;46263;44.726;10.396;2022-08-01T07:23:57;100305.44;;;26.18;52.99
60417;BME280;46263;44.726;10.396;2022-08-01T07:26:22;100302.16;;;26.24;53.47
60417;BME280;46263;44.726;10.396;2022-08-01T07:28:47;100305.72;;;26.25;53.68
60417;BME280;46263;44.726;10.396;2022-08-01T07:31:13;100301.13;;;26.29;52.48
60417;BME280;46263;44.726;10.396;2022-08-01T07:33:38;100302.25;;;26.28;52.02
60417;BME280;46263;44.726;10.396;2022-08-01T07:36:03;100300.44;;;26.41;52.22
60417;BME280;46263;44.726;10.396;2022-08-01T07:38:29;100298.28;;;26.46;52.55
60417;BME280;46263;44.726;10.396;2022-08-01T07:40:54;100304.94;;;26.45;52.40
60417;BME280;46263;44.726;10.396;2022-08-01T07:43:20;100308.44;;;26.54;51.76
60417;BME280;46263;44.726;10.396;2022-08-01T07:45:45;100299.16;;;26.59;51.66
60417;BME280;46263;44.726;10.396;2022-08-01T07:48:10;100301.44;;;26.57;50.87
60417;BME280;46263;44.726;10.396;2022-08-01T07:50:35;100297.75;;;26.74;50.58
60417;BME280;46263;44.726;10.396;2022-08-01T07:53:01;100297.53;;;26.79;50.94
60417;BME280;46263;44.726;10.396;2022-08-01T07:55:27;100291.97;;;26.67;50.40
60417;BME280;46263;44.726;10.396;2022-08-01T07:57:52;100289.81;;;26.72;50.63
60417;BME280;46263;44.726;10.396;2022-08-01T08:00:18;100292.06;;;26.91;50.67
60417;BME280;46263;44.726;10.396;2022-08-01T08:02:43;100292.97;;;27.04;51.90
60417;BME280;46263;44.726;10.396;2022-08-01T08:05:09;100292.75;;;27.09;50.66
60417;BME280;46263;44.726;10.396;2022-08-01T08:07:35;100294.38;;;27.22;50.48
60417;BME280;46263;44.726;10.396;2022-08-01T08:10:00;100294.72;;;27.20;50.27
60417;BME280;46263;44.726;10.396;2022-08-01T08:12:26;100297.81;;;27.19;51.27
60417;BME280;46263;44.726;10.396;2022-08-01T08:14:51;100283.06;;;27.36;49.91
60417;BME280;46263;44.726;10.396;2022-08-01T08:17:16;100295.72;;;27.49;49.21
60417;BME280;46263;44.726;10.396;2022-08-01T08:19:41;100289.03;;;27.50;49.26
60417;BME280;46263;44.726;10.396;2022-08-01T08:22:07;100291.97;;;27.66;49.92
60417;BME280;46263;44.726;10.396;2022-08-01T08:24:33;100295.53;;;27.66;48.78
60417;BME280;46263;44.726;10.396;2022-08-01T08:26:59;100291.97;;;27.66;48.69
60417;BME280;46263;44.726;10.396;2022-08-01T08:29:25;100297.84;;;27.88;48.56
60417;BME280;46263;44.726;10.396;2022-08-01T08:31:54;100298.97;;;27.75;47.25
60417;BME280;46263;44.726;10.396;2022-08-01T08:34:20;100296.47;;;27.82;47.32
60417;BME280;46263;44.726;10.396;2022-08-01T08:36:45;100296.44;;;27.58;49.14
60417;BME280;46263;44.726;10.396;2022-08-01T08:39:11;100293.69;;;27.58;49.58
60417;BME280;46263;44.726;10.396;2022-08-01T08:41:36;100293.34;;;27.60;48.90
60417;BME280;46263;44.726;10.396;2022-08-01T08:44:02;100292.88;;;27.82;48.05
60417;BME280;46263;44.726;10.396;2022-08-01T08:46:28;100292.09;;;27.69;48.23
60417;BME280;46263;44.726;10.396;2022-08-01T08:48:53;100297.50;;;27.90;47.65
60417;BME280;46263;44.726;10.396;2022-08-01T08:51:19;100297.03;;;28.00;46.74
60417;BME280;46263;44.726;10.396;2022-08-01T08:53:45;100287.16;;;28.23;47.33
60417;BME280;46263;44.726;10.396;2022-08-01T08:56:12;100289.75;;;28.32;46.82
60417;BME280;46263;44.726;10.396;2022-08-01T08:58:40;100292.97;;;28.34;46.99
60417;BME280;46263;44.726;10.396;2022-08-01T09:01:06;100286.41;;;28.39;47.05
60417;BME280;46263;44.726;10.396;2022-08-01T09:03:33;100291.69;;;28.56;46.97
60417;BME280;46263;44.726;10.396;2022-08-01T09:05:58;100283.63;;;28.51;46.57
60417;BME280;46263;44.726;10.396;2022-08-01T09:08:24;100295.03;;;28.49;45.73
60417;BME280;46263;44.726;10.396;2022-08-01T09:10:49;100286.75;;;28.37;45.55
60417;BME280;46263;44.726;10.396;2022-08-01T09:13:14;100288.31;;;28.63;47.85
60417;BME280;46263;44.726;10.396;2022-08-01T09:15:41;100285.75;;;28.70;44.80
60417;BME280;46263;44.726;10.396;2022-08-01T09:18:06;100283.44;;;28.84;46.40
60417;BME280;46263;44.726;10.396;2022-08-01T09:20:31;100287.47;;;29.02;45.97
60417;BME280;46263;44.726;10.396;2022-08-01T09:22:59;100280.75;;;29.15;46.11
60417;BME280;46263;44.726;10.396;2022-08-01T09:25:24;100278.31;;;29.42;46.94
60417;BME280;46263;44.726;10.396;2022-08-01T09:27:50;100274.53;;;29.50;45.06
60417;BME280;46263;44.726;10.396;2022-08-01T09:30:26;100274.50;;;29.34;45.19
60417;BME280;46263;44.726;10.396;2022-08-01T09:32:55;100280.25;;;29.73;45.86
60417;BME280;46263;44.726;10.396;2022-08-01T09:35:22;100268.25;;;29.84;45.29
60417;BME280;46263;44.726;10.396;2022-08-01T09:37:47;100268.44;;;29.92;44.04
60417;BME280;46263;44.726;10.396;2022-08-01T09:40:12;100270.09;;;30.28;44.97
60417;BME280;46263;44.726;10.396;2022-08-01T09:42:38;100266.34;;;30.20;44.46
60417;BME280;46263;44.726;10.396;2022-08-01T09:45:05;100265.53;;;30.19;45.03
60417;BME280;46263;44.726;10.396;2022-08-01T09:47:38;100269.78;;;30.33;43.02
60417;BME280;46263;44.726;10.396;2022-08-01T09:50:03;100266.25;;;30.51;44.48
60417;BME280;46263;44.726;10.396;2022-08-01T09:52:29;100274.06;;;30.84;41.50
60417;BME280;46263;44.726;10.396;2022-08-01T09:54:58;100270.94;;;30.67;41.78
60417;BME280;46263;44.726;10.396;2022-08-01T09:57:24;100268.88;;;30.64;40.94
60417;BME280;46263;44.726;10.396;2022-08-01T09:59:51;100264.72;;;30.54;42.16
60417;BME280;46263;44.726;10.396;2022-08-01T10:02:37;100268.50;;;30.46;40.66
60417;BME280;46263;44.726;10.396;2022-08-01T10:05:03;100258.94;;;30.63;40.58
60417;BME280;46263;44.726;10.396;2022-08-01T10:07:29;100260.97;;;31.04;39.88
60417;BME280;46263;44.726;10.396;2022-08-01T10:09:54;100258.94;;;31.43;41.90
60417;BME280;46263;44.726;10.396;2022-08-01T10:12:20;100257.41;;;31.69;39.98
60417;BME280;46263;44.726;10.396;2022-08-01T10:14:47;100252.50;;;31.16;39.20
60417;BME280;46263;44.726;10.396;2022-08-01T10:17:15;100246.94;;;31.62;39.65
60417;BME280;46263;44.726;10.396;2022-08-01T10:19:41;100250.06;;;31.83;40.49
60417;BME280;46263;44.726;10.396;2022-08-01T10:22:07;100245.19;;;31.77;39.42
60417;BME280;46263;44.726;10.396;2022-08-01T10:24:34;100241.63;;;32.03;40.33
60417;BME280;46263;44.726;10.396;2022-08-01T10:27:04;100237.16;;;32.21;38.60
60417;BME280;46263;44.726;10.396;2022-08-01T10:29:31;100233.59;;;32.54;38.03
60417;BME280;46263;44.726;10.396;2022-08-01T10:32:00;100233.66;;;32.58;37.94
60417;BME280;46263;44.726;10.396;2022-08-01T10:34:26;100235.41;;;33.47;39.62
60417;BME280;46263;44.726;10.396;2022-08-01T10:36:52;100234.88;;;33.78;37.39
60417;BME280;46263;44.726;10.396;2022-08-01T10:39:18;100227.41;;;33.42;36.75
60417;BME280;46263;44.726;10.396;2022-08-01T10:41:44;100224.56;;;33.38;36.30
60417;BME280;46263;44.726;10.396;2022-08-01T10:44:10;100223.47;;;33.46;36.14
60417;BME280;46263;44.726;10.396;2022-08-01T10:46:42;100224.53;;;33.35;34.97
60417;BME280;46263;44.726;10.396;2022-08-01T10:49:13;100219.59;;;33.21;33.19
60417;BME280;46263;44.726;10.396;2022-08-01T10:51:40;100214.16;;;33.79;35.56
60417;BME280;46263;44.726;10.396;2022-08-01T10:54:06;100216.88;;;34.31;35.81
60417;BME280;46263;44.726;10.396;2022-08-01T10:56:48;100220.84;;;34.30;33.22
60417;BME280;46263;44.726;10.396;2022-08-01T10:59:24;100216.91;;;34.45;35.44
60417;BME280;46263;44.726;10.396;2022-08-01T11:04:24;100205.81;;;34.59;33.24
60417;BME280;46263;44.726;10.396;2022-08-01T11:07:04;100198.00;;;33.51;32.98
60417;BME280;46263;44.726;10.396;2022-08-01T11:09:30;100199.72;;;32.78;32.97
60417;BME280;46263;44.726;10.396;2022-08-01T11:12:07;100198.47;;;33.13;33.37
60417;BME280;46263;44.726;10.396;2022-08-01T11:14:35;100191.63;;;33.03;32.91
60417;BME280;46263;44.726;10.396;2022-08-01T11:20:04;100185.31;;;34.23;32.51
60417;BME280;46263;44.726;10.396;2022-08-01T11:22:29;100186.69;;;34.72;32.07
60417;BME280;46263;44.726;10.396;2022-08-01T11:24:54;100181.19;;;35.04;32.43
60417;BME280;46263;44.726;10.396;2022-08-01T11:27:22;100172.28;;;33.72;31.87
60417;BME280;46263;44.726;10.396;2022-08-01T11:32:32;100164.91;;;33.98;32.20
60417;BME280;46263;44.726;10.396;2022-08-01T11:34:57;100165.81;;;34.23;32.76
60417;BME280;46263;44.726;10.396;2022-08-01T11:37:23;100163.53;;;34.46;31.01
60417;BME280;46263;44.726;10.396;2022-08-01T11:42:33;100151.84;;;34.19;31.18
60417;BME280;46263;44.726;10.396;2022-08-01T11:44:59;100147.16;;;34.45;30.55
60417;BME280;46263;44.726;10.396;2022-08-01T11:50:29;100144.00;;;35.92;30.24
60417;BME280;46263;44.726;10.396;2022-08-01T11:53:03;100144.81;;;35.85;30.41
60417;BME280;46263;44.726;10.396;2022-08-01T11:55:29;100139.59;;;35.98;30.76
60417;BME280;46263;44.726;10.396;2022-08-01T11:58:02;100143.28;;;35.63;30.36
60417;BME280;46263;44.726;10.396;2022-08-01T12:00:27;100129.69;;;35.79;30.68
60417;BME280;46263;44.726;10.396;2022-08-01T12:03:11;100130.94;;;35.00;29.97
60417;BME280;46263;44.726;10.396;2022-08-01T12:05:36;100125.31;;;35.64;29.66
60417;BME280;46263;44.726;10.396;2022-08-01T12:08:02;100118.75;;;36.10;31.08
60417;BME280;46263;44.726;10.396;2022-08-01T12:10:34;100119.06;;;36.37;30.47
60417;BME280;46263;44.726;10.396;2022-08-01T12:13:04;100113.03;;;36.42;29.78
60417;BME280;46263;44.726;10.396;2022-08-01T12:15:31;100115.78;;;36.49;30.29
60417;BME280;46263;44.726;10.396;2022-08-01T12:17:57;100106.63;;;36.45;29.96
60417;BME280;46263;44.726;10.396;2022-08-01T12:20:23;100105.22;;;36.71;30.06
60417;BME280;46263;44.726;10.396;2022-08-01T12:22:55;100106.50;;;36.63;29.31
60417;BME280;46263;44.726;10.396;2022-08-01T12:25:21;100096.44;;;36.69;30.71
60417;BME280;46263;44.726;10.396;2022-08-01T12:27:47;100095.69;;;37.20;29.92
60417;BME280;46263;44.726;10.396;2022-08-01T12:30:13;100095.56;;;37.31;28.51
60417;BME280;46263;44.726;10.396;2022-08-01T12:32:39;100093.16;;;37.33;28.51
60417;BME280;46263;44.726;10.396;2022-08-01T12:35:06;100095.22;;;37.25;28.85
60417;BME280;46263;44.726;10.396;2022-08-01T12:37:38;100095.66;;;37.24;27.10
60417;BME280;46263;44.726;10.396;2022-08-01T12:40:13;100092.63;;;37.45;28.45
60417;BME280;46263;44.726;10.396;2022-08-01T12:42:40;100090.88;;;37.21;29.07
60417;BME280;46263;44.726;10.396;2022-08-01T12:45:06;100095.53;;;37.34;28.99
60417;BME280;46263;44.726;10.396;2022-08-01T12:47:32;100086.97;;;37.52;26.58
60417;BME280;46263;44.726;10.396;2022-08-01T12:49:58;100081.69;;;37.54;27.92
60417;BME280;46263;44.726;10.396;2022-08-01T12:52:23;100078.34;;;37.70;28.18
60417;BME280;46263;44.726;10.396;2022-08-01T12:55:06;100076.25;;;37.40;26.74
60417;BME280;46263;44.726;10.396;2022-08-01T12:57:33;100073.13;;;37.72;27.66
60417;BME280;46263;44.726;10.396;2022-08-01T13:00:05;100076.53;;;37.87;26.69
60417;BME280;46263;44.726;10.396;2022-08-01T13:02:32;100074.34;;;37.71;27.55
60417;BME280;46263;44.726;10.396;2022-08-01T13:04:58;100073.88;;;37.76;27.97
60417;BME280;46263;44.726;10.396;2022-08-01T13:07:34;100073.75;;;38.17;28.46
60417;BME280;46263;44.726;10.396;2022-08-01T13:09:59;100072.28;;;38.05;28.25